createdAt,value
2019-03-16T00:00:45.714Z,6.30
2019-03-16T00:01:56.496Z,6.43
2019-03-16T00:02:46.716Z,6.44
2019-03-16T00:03:45.693Z,6.32
2019-03-16T00:04:45.677Z,6.33
2019-03-16T00:05:45.658Z,6.33
2019-03-16T00:06:45.651Z,6.36
2019-03-16T00:07:45.636Z,6.36
2019-03-16T00:08:45.638Z,6.25
2019-03-16T00:09:45.621Z,6.29
2019-03-16T00:10:45.602Z,6.26
2019-03-16T00:11:45.739Z,6.28
2019-03-16T00:12:45.599Z,6.32
2019-03-16T00:13:45.627Z,6.32
2019-03-16T00:14:45.559Z,6.43
2019-03-16T00:15:45.554Z,6.35
2019-03-16T00:16:45.539Z,6.36
2019-03-16T00:17:45.527Z,6.32
2019-03-16T00:18:45.518Z,6.32
2019-03-16T00:19:45.517Z,6.38
2019-03-16T00:20:45.496Z,6.33
2019-03-16T00:21:45.488Z,6.35
2019-03-16T00:22:45.470Z,6.32
2019-03-16T00:23:45.466Z,6.32
2019-03-16T00:24:45.460Z,6.43
2019-03-16T00:25:45.450Z,6.32
2019-03-16T00:26:45.427Z,6.30
2019-03-16T00:27:45.418Z,6.28
2019-03-16T00:28:45.420Z,6.29
2019-03-16T00:29:45.393Z,6.32
2019-03-16T00:30:45.400Z,6.13
2019-03-16T00:31:45.374Z,6.11
2019-03-16T00:32:45.359Z,6.11
2019-03-16T00:33:45.359Z,6.04
2019-03-16T00:34:45.358Z,6.11
2019-03-16T00:35:45.339Z,6.18
2019-03-16T00:36:45.329Z,6.16
2019-03-16T00:37:45.318Z,6.29
2019-03-16T00:38:45.296Z,6.32
2019-03-16T00:39:45.296Z,6.30
2019-03-16T00:40:45.293Z,6.33
2019-03-16T00:41:45.262Z,6.26
2019-03-16T00:42:45.288Z,6.40
2019-03-16T00:43:45.239Z,6.40
2019-03-16T00:44:45.228Z,6.26
2019-03-16T00:45:45.243Z,6.32
2019-03-16T00:46:45.210Z,6.30
2019-03-16T00:47:45.202Z,6.13
2019-03-16T00:48:45.204Z,6.18
2019-03-16T00:49:45.179Z,6.13
2019-03-16T00:50:45.160Z,6.25
2019-03-16T00:51:45.165Z,6.26
2019-03-16T00:52:45.138Z,6.32
2019-03-16T00:53:45.134Z,6.30
2019-03-16T00:54:45.130Z,6.25
2019-03-16T00:55:45.120Z,6.13
2019-03-16T00:56:45.117Z,6.09
2019-03-16T00:57:45.094Z,6.11
2019-03-16T00:58:45.073Z,6.14
2019-03-16T00:59:45.099Z,6.13
2019-03-16T01:00:45.057Z,6.22
2019-03-16T01:01:45.038Z,6.14
2019-03-16T01:02:45.034Z,6.10
2019-03-16T01:03:45.021Z,6.18
2019-03-16T01:04:45.005Z,6.14
2019-03-16T01:05:45.013Z,6.07
2019-03-16T01:06:45.003Z,6.09
2019-03-16T01:07:44.972Z,6.00
2019-03-16T01:08:44.963Z,5.88
2019-03-16T01:09:44.953Z,5.85
2019-03-16T01:10:44.946Z,5.88
2019-03-16T01:11:44.969Z,5.86
2019-03-16T01:12:44.923Z,5.88
2019-03-16T01:13:44.915Z,5.96
2019-03-16T01:14:44.899Z,5.91
2019-03-16T01:15:44.893Z,6.03
2019-03-16T01:16:44.873Z,6.00
2019-03-16T01:17:44.875Z,5.95
2019-03-16T01:18:44.856Z,6.04
2019-03-16T01:19:44.845Z,6.01
2019-03-16T01:20:44.842Z,5.88
2019-03-16T01:21:44.846Z,5.81
2019-03-16T01:22:44.809Z,5.93
2019-03-16T01:23:44.803Z,5.89
2019-03-16T01:24:44.790Z,5.83
2019-03-16T01:25:44.775Z,5.82
2019-03-16T01:26:44.764Z,5.86
2019-03-16T01:27:44.763Z,5.85
2019-03-16T01:28:44.763Z,5.93
2019-03-16T01:29:44.743Z,5.82
2019-03-16T01:30:44.722Z,5.77
2019-03-16T01:31:44.709Z,5.85
2019-03-16T01:32:44.732Z,5.85
2019-03-16T01:33:44.685Z,5.92
2019-03-16T01:34:44.688Z,5.74
2019-03-16T01:35:44.669Z,5.83
2019-03-16T01:36:44.673Z,5.89
2019-03-16T01:37:44.664Z,5.89
2019-03-16T01:38:44.644Z,5.77
2019-03-16T01:39:44.630Z,5.78
2019-03-16T01:40:44.608Z,5.81
2019-03-16T01:41:44.598Z,5.68
2019-03-16T01:42:44.593Z,5.67
2019-03-16T01:43:44.576Z,5.67
2019-03-16T01:44:44.583Z,5.68
2019-03-16T01:45:44.566Z,5.68
2019-03-16T01:46:44.541Z,5.71
2019-03-16T01:47:44.533Z,5.74
2019-03-16T01:48:44.523Z,5.74
2019-03-16T01:49:44.514Z,5.85
2019-03-16T01:50:44.561Z,5.75
2019-03-16T01:51:44.485Z,5.75
2019-03-16T01:52:44.477Z,5.74
2019-03-16T01:53:44.463Z,5.75
2019-03-16T01:54:44.462Z,5.74
2019-03-16T01:55:44.445Z,5.70
2019-03-16T01:56:44.456Z,5.71
2019-03-16T01:57:44.418Z,5.57
2019-03-16T01:58:44.409Z,5.59
2019-03-16T01:59:44.412Z,5.66
2019-03-16T02:00:44.406Z,5.73
2019-03-16T02:01:44.383Z,5.67
2019-03-16T02:02:54.600Z,5.66
2019-03-16T02:03:45.441Z,5.71
2019-03-16T02:04:44.341Z,5.70
2019-03-16T02:05:44.332Z,5.67
2019-03-16T02:06:44.327Z,5.57
2019-03-16T02:07:44.320Z,5.59
2019-03-16T02:08:44.298Z,5.59
2019-03-16T02:09:44.285Z,5.63
2019-03-16T02:10:44.279Z,5.53
2019-03-16T02:11:44.279Z,5.70
2019-03-16T02:12:44.275Z,5.70
2019-03-16T02:13:44.255Z,5.70
2019-03-16T02:14:44.230Z,5.63
2019-03-16T02:15:44.220Z,5.67
2019-03-16T02:16:44.208Z,5.57
2019-03-16T02:17:44.241Z,5.55
2019-03-16T02:18:44.244Z,5.50
2019-03-16T02:19:44.218Z,5.45
2019-03-16T02:20:44.237Z,5.43
2019-03-16T02:21:44.299Z,5.57
2019-03-16T02:22:44.142Z,5.59
2019-03-16T02:23:44.131Z,5.60
2019-03-16T02:24:44.131Z,5.66
2019-03-16T02:25:44.115Z,5.53
2019-03-16T02:26:44.104Z,5.55
2019-03-16T02:27:44.084Z,5.59
2019-03-16T02:28:44.077Z,5.60
2019-03-16T02:29:44.076Z,5.64
2019-03-16T02:30:44.064Z,5.68
2019-03-16T02:31:44.056Z,5.67
2019-03-16T02:32:44.037Z,5.64
2019-03-16T02:33:44.068Z,5.59
2019-03-16T02:34:44.015Z,5.67
2019-03-16T02:35:44.000Z,5.67
2019-03-16T02:36:43.992Z,5.70
2019-03-16T02:37:43.974Z,5.67
2019-03-16T02:38:43.963Z,5.67
2019-03-16T02:39:43.998Z,5.81
2019-03-16T02:40:44.010Z,5.82
2019-03-16T02:41:43.940Z,5.77
2019-03-16T02:42:43.926Z,5.70
2019-03-16T02:43:43.908Z,5.74
2019-03-16T02:44:43.900Z,5.71
2019-03-16T02:45:43.900Z,5.70
2019-03-16T02:46:43.888Z,5.74
2019-03-16T02:47:43.869Z,5.77
2019-03-16T02:48:43.863Z,5.74
2019-03-16T02:49:43.843Z,5.77
2019-03-16T02:50:43.847Z,5.77
2019-03-16T02:51:43.826Z,5.74
2019-03-16T02:52:43.821Z,5.86
2019-03-16T02:53:43.797Z,5.82
2019-03-16T02:54:43.791Z,5.78
2019-03-16T02:55:43.809Z,5.85
2019-03-16T02:56:43.770Z,5.83
2019-03-16T02:57:43.754Z,5.86
2019-03-16T02:58:43.759Z,5.88
2019-03-16T02:59:43.740Z,5.85
2019-03-16T03:00:43.742Z,5.81
2019-03-16T03:01:43.723Z,5.67
2019-03-16T03:02:43.707Z,5.75
2019-03-16T03:03:43.689Z,5.70
2019-03-16T03:04:45.961Z,5.70
2019-03-16T03:05:43.681Z,5.85
2019-03-16T03:06:43.670Z,5.85
2019-03-16T03:07:43.686Z,5.75
2019-03-16T03:08:43.656Z,5.78
2019-03-16T03:09:43.626Z,5.73
2019-03-16T03:10:43.627Z,5.71
2019-03-16T03:11:43.605Z,5.68
2019-03-16T03:12:43.592Z,5.67
2019-03-16T03:13:43.594Z,5.67
2019-03-16T03:14:43.578Z,5.70
2019-03-16T03:15:43.560Z,5.67
2019-03-16T03:16:43.555Z,5.67
2019-03-16T03:17:43.534Z,5.70
2019-03-16T03:18:43.544Z,5.70
2019-03-16T03:19:43.520Z,5.70
2019-03-16T03:20:43.501Z,5.70
2019-03-16T03:21:43.498Z,5.78
2019-03-16T03:22:43.483Z,5.73
2019-03-16T03:23:43.506Z,5.77
2019-03-16T03:24:44.397Z,5.86
2019-03-16T03:25:43.445Z,5.82
2019-03-16T03:26:43.451Z,5.93
2019-03-16T03:27:43.445Z,5.88
2019-03-16T03:28:43.410Z,5.88
2019-03-16T03:29:43.418Z,5.91
2019-03-16T03:30:43.423Z,5.92
2019-03-16T03:31:43.419Z,5.89
2019-03-16T03:32:43.463Z,5.89
2019-03-16T03:33:59.160Z,5.93
2019-03-16T03:34:44.378Z,5.92
2019-03-16T03:35:43.338Z,5.86
2019-03-16T03:36:43.349Z,5.89
2019-03-16T03:37:43.318Z,5.89
2019-03-16T03:38:43.325Z,5.91
2019-03-16T03:39:43.396Z,5.82
2019-03-16T03:40:43.307Z,5.86
2019-03-16T03:41:43.273Z,6.00
2019-03-16T03:42:43.281Z,5.95
2019-03-16T03:43:43.246Z,5.96
2019-03-16T03:44:43.241Z,6.01
2019-03-16T03:45:43.235Z,5.93
2019-03-16T03:46:43.225Z,6.06
2019-03-16T03:47:43.202Z,5.95
2019-03-16T03:48:43.201Z,5.89
2019-03-16T03:49:43.183Z,5.91
2019-03-16T03:50:43.190Z,5.93
2019-03-16T03:51:43.195Z,5.93
2019-03-16T03:52:43.147Z,5.92
2019-03-16T03:53:43.159Z,5.95
2019-03-16T03:54:43.127Z,6.00
2019-03-16T03:55:43.114Z,5.93
2019-03-16T03:56:43.108Z,6.00
2019-03-16T03:57:43.118Z,5.95
2019-03-16T03:58:43.083Z,5.98
2019-03-16T03:59:43.079Z,5.95
2019-03-16T04:00:43.070Z,5.98
2019-03-16T04:01:43.080Z,6.00
2019-03-16T04:02:43.068Z,6.06
2019-03-16T04:03:43.032Z,6.07
2019-03-16T04:04:43.018Z,6.04
2019-03-16T04:05:43.006Z,6.00
2019-03-16T04:06:43.010Z,6.01
2019-03-16T04:07:42.983Z,6.03
2019-03-16T04:08:42.976Z,6.03
2019-03-16T04:09:42.994Z,6.00
2019-03-16T04:10:42.957Z,5.98
2019-03-16T04:11:42.953Z,5.98
2019-03-16T04:12:42.928Z,5.91
2019-03-16T04:13:42.915Z,5.88
2019-03-16T04:14:42.905Z,5.96
2019-03-16T04:15:42.895Z,5.85
2019-03-16T04:16:42.906Z,5.98
2019-03-16T04:17:42.892Z,5.89
2019-03-16T04:18:42.860Z,5.83
2019-03-16T04:19:42.862Z,5.88
2019-03-16T04:20:42.841Z,5.89
2019-03-16T04:21:42.876Z,5.83
2019-03-16T04:22:42.964Z,5.88
2019-03-16T04:23:42.843Z,5.78
2019-03-16T04:24:45.207Z,5.73
2019-03-16T04:25:42.804Z,5.66
2019-03-16T04:26:42.771Z,5.71
2019-03-16T04:27:42.764Z,5.68
2019-03-16T04:28:42.750Z,5.71
2019-03-16T04:29:42.739Z,5.66
2019-03-16T04:30:42.733Z,5.64
2019-03-16T04:31:42.750Z,5.64
2019-03-16T04:32:42.708Z,5.56
2019-03-16T04:33:42.703Z,5.57
2019-03-16T04:34:45.072Z,5.57
2019-03-16T04:35:42.677Z,5.63
2019-03-16T04:36:42.659Z,5.66
2019-03-16T04:37:42.664Z,5.53
2019-03-16T04:38:42.652Z,5.63
2019-03-16T04:39:42.627Z,5.67
2019-03-16T04:40:44.598Z,5.53
2019-03-16T04:41:42.616Z,5.63
2019-03-16T04:42:42.594Z,5.56
2019-03-16T04:43:42.599Z,5.64
2019-03-16T04:44:42.571Z,5.68
2019-03-16T04:45:42.660Z,5.60
2019-03-16T04:46:42.549Z,5.66
2019-03-16T04:47:42.546Z,5.67
2019-03-16T04:48:42.561Z,5.66
2019-03-16T04:49:42.522Z,5.66
2019-03-16T04:50:42.504Z,5.63
2019-03-16T04:51:42.594Z,5.64
2019-03-16T04:52:42.483Z,5.57
2019-03-16T04:53:42.479Z,5.48
2019-03-16T04:54:42.479Z,5.48
2019-03-16T04:55:42.450Z,5.46
2019-03-16T04:56:42.450Z,5.43
2019-03-16T04:57:42.451Z,5.41
2019-03-16T04:58:42.417Z,5.45
2019-03-16T04:59:42.450Z,5.34
2019-03-16T05:00:42.395Z,5.37
2019-03-16T05:01:42.386Z,5.35
2019-03-16T05:02:42.483Z,5.34
2019-03-16T05:03:42.363Z,5.31
2019-03-16T05:04:42.968Z,5.35
2019-03-16T05:05:42.362Z,5.35
2019-03-16T05:06:42.335Z,5.34
2019-03-16T05:07:42.323Z,5.48
2019-03-16T05:08:42.309Z,5.35
2019-03-16T05:09:42.294Z,5.43
2019-03-16T05:10:42.285Z,5.37
2019-03-16T05:11:42.365Z,5.40
2019-03-16T05:12:42.271Z,5.38
2019-03-16T05:13:42.252Z,5.38
2019-03-16T05:14:42.329Z,5.30
2019-03-16T05:15:42.229Z,5.30
2019-03-16T05:16:42.217Z,5.28
2019-03-16T05:17:42.228Z,5.37
2019-03-16T05:18:42.199Z,5.31
2019-03-16T05:19:42.183Z,5.30
2019-03-16T05:20:42.175Z,5.25
2019-03-16T05:21:42.162Z,5.28
2019-03-16T05:22:42.184Z,5.31
2019-03-16T05:23:42.147Z,5.25
2019-03-16T05:24:42.134Z,5.30
2019-03-16T05:25:42.118Z,5.30
2019-03-16T05:26:42.107Z,5.30
2019-03-16T05:27:42.099Z,5.34
2019-03-16T05:28:42.098Z,5.25
2019-03-16T05:29:42.077Z,5.34
2019-03-16T05:30:42.064Z,5.32
2019-03-16T05:31:42.053Z,5.25
2019-03-16T05:32:42.044Z,5.25
2019-03-16T05:33:42.069Z,5.20
2019-03-16T05:34:55.584Z,5.17
2019-03-16T05:35:43.020Z,5.22
2019-03-16T05:36:42.005Z,5.20
2019-03-16T05:37:41.992Z,5.27
2019-03-16T05:38:41.977Z,5.22
2019-03-16T05:39:41.976Z,5.22
2019-03-16T05:40:41.953Z,5.25
2019-03-16T05:41:41.946Z,5.31
2019-03-16T05:42:41.930Z,5.30
2019-03-16T05:43:41.919Z,5.28
2019-03-16T05:44:41.934Z,5.25
2019-03-16T05:45:41.895Z,5.28
2019-03-16T05:46:41.894Z,5.25
2019-03-16T05:47:41.880Z,5.22
2019-03-16T05:48:41.865Z,5.35
2019-03-16T05:49:41.851Z,5.30
2019-03-16T05:50:41.869Z,5.32
2019-03-16T05:51:41.832Z,5.34
2019-03-16T05:52:41.818Z,5.27
2019-03-16T05:53:41.819Z,5.28
2019-03-16T05:54:41.796Z,5.27
2019-03-16T05:55:41.787Z,5.30
2019-03-16T05:56:41.788Z,5.25
2019-03-16T05:57:41.844Z,5.35
2019-03-16T05:58:41.752Z,5.38
2019-03-16T05:59:41.747Z,5.31
2019-03-16T06:00:41.733Z,5.30
2019-03-16T06:01:41.731Z,5.32
2019-03-16T06:02:41.719Z,5.30
2019-03-16T06:03:41.701Z,5.31
2019-03-16T06:04:41.687Z,5.45
2019-03-16T06:05:41.707Z,5.40
2019-03-16T06:06:41.673Z,5.46
2019-03-16T06:07:41.654Z,5.41
2019-03-16T06:08:41.668Z,5.41
2019-03-16T06:09:41.629Z,5.49
2019-03-16T06:10:41.721Z,5.48
2019-03-16T06:11:41.630Z,5.52
2019-03-16T06:12:41.604Z,5.56
2019-03-16T06:13:41.588Z,5.55
2019-03-16T06:14:41.573Z,5.52
2019-03-16T06:15:41.562Z,5.46
2019-03-16T06:16:41.550Z,5.57
2019-03-16T06:17:41.559Z,5.59
2019-03-16T06:18:41.538Z,5.66
2019-03-16T06:19:41.518Z,5.64
2019-03-16T06:20:41.519Z,5.53
2019-03-16T06:21:41.496Z,5.59
2019-03-16T06:22:41.483Z,5.63
2019-03-16T06:23:41.492Z,5.67
2019-03-16T06:24:41.469Z,5.70
2019-03-16T06:25:41.451Z,5.77
2019-03-16T06:26:41.442Z,5.81
2019-03-16T06:27:41.442Z,5.73
2019-03-16T06:28:41.424Z,5.93
2019-03-16T06:29:41.417Z,5.85
2019-03-16T06:30:41.402Z,5.82
2019-03-16T06:31:41.386Z,5.81
2019-03-16T06:32:41.388Z,5.83
2019-03-16T06:33:41.374Z,5.86
2019-03-16T06:34:41.353Z,5.88
2019-03-16T06:35:41.363Z,5.96
2019-03-16T06:36:41.335Z,5.98
2019-03-16T06:37:41.323Z,6.00
2019-03-16T06:38:41.315Z,6.01
2019-03-16T06:39:41.301Z,5.91
2019-03-16T06:40:41.289Z,6.00
2019-03-16T06:41:43.426Z,6.00
2019-03-16T06:42:41.267Z,5.96
2019-03-16T06:43:41.255Z,6.07
2019-03-16T06:44:41.253Z,6.00
2019-03-16T06:45:41.234Z,5.95
2019-03-16T06:46:41.221Z,6.10
2019-03-16T06:47:41.240Z,6.09
2019-03-16T06:48:41.208Z,6.14
2019-03-16T06:49:41.201Z,6.28
2019-03-16T06:50:41.173Z,6.21
2019-03-16T06:51:41.223Z,6.33
2019-03-16T06:52:41.166Z,6.36
2019-03-16T06:53:41.155Z,6.36
2019-03-16T06:54:41.131Z,6.35
2019-03-16T06:55:41.140Z,6.32
2019-03-16T06:56:41.108Z,6.44
2019-03-16T06:57:41.118Z,6.56
2019-03-16T06:58:41.094Z,6.56
2019-03-16T06:59:41.085Z,6.54
2019-03-16T07:00:41.147Z,6.53
2019-03-16T07:01:41.136Z,6.61
2019-03-16T07:02:41.053Z,6.56
2019-03-16T07:03:41.032Z,6.53
2019-03-16T07:04:41.049Z,6.59
2019-03-16T07:05:41.009Z,6.53
2019-03-16T07:06:41.005Z,6.54
2019-03-16T07:07:40.989Z,6.56
2019-03-16T07:08:40.975Z,6.50
2019-03-16T07:09:40.974Z,6.53
2019-03-16T07:10:40.984Z,6.51
2019-03-16T07:11:40.941Z,6.56
2019-03-16T07:12:40.930Z,6.63
2019-03-16T07:13:40.927Z,6.61
2019-03-16T07:14:40.935Z,6.65
2019-03-16T07:15:40.897Z,6.62
2019-03-16T07:16:40.900Z,6.61
2019-03-16T07:17:40.878Z,6.66
2019-03-16T07:18:40.864Z,6.63
2019-03-16T07:19:40.862Z,6.54
2019-03-16T07:20:40.948Z,6.66
2019-03-16T07:21:40.831Z,6.63
2019-03-16T07:22:40.832Z,6.61
2019-03-16T07:23:40.812Z,6.58
2019-03-16T07:24:40.799Z,6.69
2019-03-16T07:25:40.796Z,6.56
2019-03-16T07:26:40.788Z,6.59
2019-03-16T07:27:40.764Z,6.63
2019-03-16T07:28:40.753Z,6.63
2019-03-16T07:29:40.748Z,6.66
2019-03-16T07:30:40.744Z,6.66
2019-03-16T07:31:40.738Z,6.73
2019-03-16T07:32:40.716Z,6.69
2019-03-16T07:33:40.697Z,6.77
2019-03-16T07:34:40.686Z,6.84
2019-03-16T07:35:40.673Z,6.77
2019-03-16T07:36:40.695Z,6.76
2019-03-16T07:37:40.775Z,6.66
2019-03-16T07:38:40.642Z,6.73
2019-03-16T07:39:40.636Z,6.73
2019-03-16T07:40:40.619Z,6.62
2019-03-16T07:41:40.609Z,6.71
2019-03-16T07:42:40.609Z,6.63
2019-03-16T07:43:40.626Z,6.65
2019-03-16T07:44:40.582Z,6.76
2019-03-16T07:45:40.572Z,6.68
2019-03-16T07:46:40.553Z,6.59
2019-03-16T07:47:40.542Z,6.59
2019-03-16T07:48:40.535Z,6.59
2019-03-16T07:49:40.533Z,6.50
2019-03-16T07:50:40.508Z,6.48
2019-03-16T07:51:40.501Z,6.40
2019-03-16T07:52:40.501Z,6.40
2019-03-16T07:53:40.496Z,6.36
2019-03-16T07:54:40.474Z,6.29
2019-03-16T07:55:42.244Z,6.18
2019-03-16T07:56:40.442Z,6.18
2019-03-16T07:57:41.086Z,6.00
2019-03-16T07:58:40.418Z,5.98
2019-03-16T07:59:40.421Z,6.00
2019-03-16T08:00:40.407Z,5.92
2019-03-16T08:01:40.393Z,5.88
2019-03-16T08:02:40.376Z,5.74
2019-03-16T08:03:40.389Z,5.81
2019-03-16T08:04:43.380Z,5.70
2019-03-16T08:05:40.347Z,5.68
2019-03-16T08:06:40.334Z,5.66
2019-03-16T08:07:40.324Z,5.71
2019-03-16T08:08:40.321Z,5.63
2019-03-16T08:09:40.313Z,5.75
2019-03-16T08:10:40.287Z,5.68
2019-03-16T08:11:40.277Z,5.68
2019-03-16T08:12:40.272Z,5.71
2019-03-16T08:13:40.350Z,5.77
2019-03-16T08:14:40.250Z,5.59
2019-03-16T08:15:40.230Z,5.56
2019-03-16T08:16:40.227Z,5.57
2019-03-16T08:17:40.209Z,5.59
2019-03-16T08:18:40.197Z,5.59
2019-03-16T08:19:40.259Z,5.52
2019-03-16T08:20:40.178Z,5.56
2019-03-16T08:21:40.166Z,5.60
2019-03-16T08:22:40.160Z,5.57
2019-03-16T08:23:40.227Z,5.55
2019-03-16T08:24:40.130Z,5.52
2019-03-16T08:25:40.145Z,5.53
2019-03-16T08:26:40.109Z,5.53
2019-03-16T08:27:53.041Z,5.50
2019-03-16T08:28:41.098Z,5.53
2019-03-16T08:29:40.078Z,5.38
2019-03-16T08:30:40.122Z,5.37
2019-03-16T08:31:40.062Z,5.30
2019-03-16T08:32:40.050Z,5.34
2019-03-16T08:33:40.032Z,5.30
2019-03-16T08:34:40.021Z,5.30
2019-03-16T08:35:40.014Z,5.32
2019-03-16T08:36:40.019Z,5.19
2019-03-16T08:37:39.996Z,5.20
2019-03-16T08:38:40.009Z,5.14
2019-03-16T08:39:39.968Z,5.22
2019-03-16T08:40:39.955Z,5.22
2019-03-16T08:41:39.946Z,5.19
2019-03-16T08:42:39.934Z,5.19
2019-03-16T08:43:39.959Z,5.28
2019-03-16T08:44:39.923Z,5.22
2019-03-16T08:45:39.910Z,5.19
2019-03-16T08:46:39.890Z,5.17
2019-03-16T08:47:39.880Z,5.12
2019-03-16T08:48:39.866Z,5.19
2019-03-16T08:49:39.868Z,5.22
2019-03-16T08:50:39.859Z,5.30
2019-03-16T08:51:39.843Z,5.28
2019-03-16T08:52:39.885Z,5.25
2019-03-16T08:53:39.818Z,5.25
2019-03-16T08:54:39.856Z,5.23
2019-03-16T08:55:39.792Z,5.23
2019-03-16T08:56:39.926Z,5.25
2019-03-16T08:57:39.810Z,5.31
2019-03-16T08:58:39.755Z,5.34
2019-03-16T08:59:39.749Z,5.35
2019-03-16T09:00:39.747Z,5.34
2019-03-16T09:01:39.726Z,5.30
2019-03-16T09:02:39.711Z,5.30
2019-03-16T09:03:43.917Z,5.31
2019-03-16T09:04:39.691Z,5.34
2019-03-16T09:05:39.696Z,5.32
2019-03-16T09:06:39.672Z,5.35
2019-03-16T09:07:39.657Z,5.45
2019-03-16T09:08:39.648Z,5.37
2019-03-16T09:09:39.638Z,5.38
2019-03-16T09:10:39.638Z,5.43
2019-03-16T09:11:39.636Z,5.40
2019-03-16T09:12:39.626Z,5.48
2019-03-16T09:13:39.589Z,5.37
2019-03-16T09:14:39.621Z,5.45
2019-03-16T09:15:39.575Z,5.38
2019-03-16T09:16:39.558Z,5.56
2019-03-16T09:17:39.656Z,5.49
2019-03-16T09:18:39.540Z,5.55
2019-03-16T09:19:39.554Z,5.60
2019-03-16T09:20:39.519Z,5.55
2019-03-16T09:21:39.506Z,5.59
2019-03-16T09:22:39.496Z,5.53
2019-03-16T09:23:39.590Z,5.52
2019-03-16T09:24:39.475Z,5.45
2019-03-16T09:25:39.462Z,5.50
2019-03-16T09:26:39.495Z,5.45
2019-03-16T09:27:39.444Z,5.46
2019-03-16T09:39:48.050Z,5.57
2019-03-16T09:40:48.031Z,5.59
2019-03-16T09:41:48.030Z,5.55
2019-03-16T09:42:48.010Z,5.68
2019-03-16T09:43:47.999Z,5.66
2019-03-16T09:44:47.998Z,5.71
2019-03-16T09:45:48.005Z,5.68
2019-03-16T09:46:47.970Z,5.77
2019-03-16T09:47:47.952Z,5.73
2019-03-16T09:48:47.946Z,5.77
2019-03-16T09:49:47.938Z,5.89
2019-03-16T09:50:47.938Z,5.89
2019-03-16T09:51:47.915Z,5.91
2019-03-16T09:52:47.902Z,6.03
2019-03-16T09:53:47.887Z,5.98
2019-03-16T09:54:47.879Z,6.01
2019-03-16T09:55:47.934Z,5.98
2019-03-16T09:57:00.217Z,5.98
2019-03-16T09:57:48.855Z,5.96
2019-03-16T09:58:47.832Z,6.03
2019-03-16T09:59:47.829Z,6.13
2019-03-16T10:00:47.826Z,6.22
2019-03-16T10:01:47.798Z,6.26
2019-03-16T10:02:47.799Z,6.16
2019-03-16T10:03:47.776Z,6.11
2019-03-16T10:04:47.768Z,6.10
2019-03-16T10:05:47.771Z,6.09
2019-03-16T10:06:47.745Z,6.09
2019-03-16T10:07:47.747Z,6.11
2019-03-16T10:08:47.722Z,6.11
2019-03-16T10:09:47.729Z,6.11
2019-03-16T10:10:47.704Z,5.95
2019-03-16T10:11:47.689Z,6.01
2019-03-16T10:12:47.675Z,5.93
2019-03-16T10:13:47.667Z,5.96
2019-03-16T10:14:47.683Z,5.95
2019-03-16T10:15:47.643Z,5.93
2019-03-16T10:16:47.631Z,5.86
2019-03-16T10:17:47.627Z,5.89
2019-03-16T10:18:47.610Z,5.85
2019-03-16T10:19:47.605Z,5.89
2019-03-16T10:20:47.621Z,5.91
2019-03-16T10:21:47.585Z,5.98
2019-03-16T10:22:47.566Z,6.03
2019-03-16T10:23:47.556Z,6.13
2019-03-16T10:24:47.546Z,6.10
2019-03-16T10:25:47.543Z,6.30
2019-03-16T10:26:47.632Z,6.29
2019-03-16T10:27:47.511Z,6.35
2019-03-16T10:28:47.502Z,6.35
2019-03-16T10:29:47.490Z,6.51
2019-03-16T10:30:47.484Z,6.40
2019-03-16T10:31:47.469Z,6.48
2019-03-16T10:32:47.497Z,6.47
2019-03-16T10:33:47.445Z,6.61
2019-03-16T10:34:47.436Z,6.59
2019-03-16T10:35:47.424Z,6.53
2019-03-16T10:36:47.425Z,6.48
2019-03-16T10:37:47.401Z,6.41
